sensor_id;sensor_type;location;lat;lon;timestamp;pressure;altitude;pressure_sealevel;temperature;humidity
68654;BME280;55636;51.108;13.622;2023-04-07T00:00:49;100626.81;;;2.66;44.09
68654;BME280;55636;51.108;13.622;2023-04-07T00:01:52;100623.25;;;2.66;44.16
68654;BME280;55636;51.108;13.622;2023-04-07T00:02:55;100631.25;;;2.67;44.16
68654;BME280;55636;51.108;13.622;2023-04-07T00:03:58;100624.28;;;2.65;44.25
68654;BME280;55636;51.108;13.622;2023-04-07T00:05:02;100621.56;;;2.65;44.27
68654;BME280;55636;51.108;13.622;2023-04-07T00:06:06;100622.59;;;2.64;44.36
68654;BME280;55636;51.108;13.622;2023-04-07T00:07:08;100625.34;;;2.64;44.21
68654;BME280;55636;51.108;13.622;2023-04-07T00:08:10;100625.53;;;2.62;44.46
68654;BME280;55636;51.108;13.622;2023-04-07T00:09:13;100618.19;;;2.63;44.45
68654;BME280;55636;51.108;13.622;2023-04-07T00:10:15;100624.72;;;2.62;44.58
68654;BME280;55636;51.108;13.622;2023-04-07T00:11:19;100626.78;;;2.59;44.55
68654;BME280;55636;51.108;13.622;2023-04-07T00:12:21;100629.50;;;2.59;44.59
68654;BME280;55636;51.108;13.622;2023-04-07T00:13:23;100623.22;;;2.59;44.58
68654;BME280;55636;51.108;13.622;2023-04-07T00:14:26;100623.41;;;2.57;44.49
68654;BME280;55636;51.108;13.622;2023-04-07T00:15:28;100626.13;;;2.57;44.54
68654;BME280;55636;51.108;13.622;2023-04-07T00:16:30;100622.78;;;2.55;44.68
68654;BME280;55636;51.108;13.622;2023-04-07T00:17:33;100625.72;;;2.54;44.78
68654;BME280;55636;51.108;13.622;2023-04-07T00:18:36;100630.50;;;2.52;44.91
68654;BME280;55636;51.108;13.622;2023-04-07T00:19:38;100624.22;;;2.51;44.70
68654;BME280;55636;51.108;13.622;2023-04-07T00:20:40;100632.41;;;2.51;44.73
68654;BME280;55636;51.108;13.622;2023-04-07T00:21:43;100629.91;;;2.50;44.86
68654;BME280;55636;51.108;13.622;2023-04-07T00:22:45;100633.66;;;2.49;44.98
68654;BME280;55636;51.108;13.622;2023-04-07T00:23:48;100626.50;;;2.48;44.90
68654;BME280;55636;51.108;13.622;2023-04-07T00:24:50;100628.59;;;2.46;44.86
68654;BME280;55636;51.108;13.622;2023-04-07T00:25:53;100623.34;;;2.44;45.07
68654;BME280;55636;51.108;13.622;2023-04-07T00:26:55;100626.06;;;2.44;45.10
68654;BME280;55636;51.108;13.622;2023-04-07T00:27:58;100622.72;;;2.42;45.06
68654;BME280;55636;51.108;13.622;2023-04-07T00:29:02;100629.00;;;2.42;45.01
68654;BME280;55636;51.108;13.622;2023-04-07T00:30:05;100622.88;;;2.40;44.99
68654;BME280;55636;51.108;13.622;2023-04-07T00:31:07;100623.94;;;2.39;44.94
68654;BME280;55636;51.108;13.622;2023-04-07T00:32:09;100625.00;;;2.38;45.08
68654;BME280;55636;51.108;13.622;2023-04-07T00:33:12;100620.56;;;2.37;44.97
68654;BME280;55636;51.108;13.622;2023-04-07T00:34:14;100627.06;;;2.36;45.06
68654;BME280;55636;51.108;13.622;2023-04-07T00:35:17;100627.25;;;2.35;45.18
68654;BME280;55636;51.108;13.622;2023-04-07T00:36:20;100623.88;;;2.33;45.08
68654;BME280;55636;51.108;13.622;2023-04-07T00:37:22;100620.31;;;2.32;45.30
68654;BME280;55636;51.108;13.622;2023-04-07T00:38:26;100616.97;;;2.30;45.28
68654;BME280;55636;51.108;13.622;2023-04-07T00:39:31;100618.00;;;2.29;45.22
68654;BME280;55636;51.108;13.622;2023-04-07T00:40:34;100619.03;;;2.28;45.22
68654;BME280;55636;51.108;13.622;2023-04-07T00:41:36;100614.63;;;2.27;45.28
68654;BME280;55636;51.108;13.622;2023-04-07T00:42:40;100617.34;;;2.27;45.21
68654;BME280;55636;51.108;13.622;2023-04-07T00:43:42;100612.94;;;2.26;45.19
68654;BME280;55636;51.108;13.622;2023-04-07T00:44:45;100615.03;;;2.24;45.47
68654;BME280;55636;51.108;13.622;2023-04-07T00:45:49;100613.34;;;2.23;45.46
68654;BME280;55636;51.108;13.622;2023-04-07T00:46:51;100608.94;;;2.22;45.39
68654;BME280;55636;51.108;13.622;2023-04-07T00:47:56;100611.66;;;2.22;45.43
68654;BME280;55636;51.108;13.622;2023-04-07T00:48:59;100612.69;;;2.21;45.40
68654;BME280;55636;51.108;13.622;2023-04-07T00:50:05;100611.84;;;2.20;45.40
68654;BME280;55636;51.108;13.622;2023-04-07T00:51:07;100605.56;;;2.20;45.45
68654;BME280;55636;51.108;13.622;2023-04-07T00:52:10;100611.19;;;2.18;45.56
68654;BME280;55636;51.108;13.622;2023-04-07T00:53:13;100601.38;;;2.17;45.33
68654;BME280;55636;51.108;13.622;2023-04-07T00:54:17;100610.56;;;2.16;45.50
68654;BME280;55636;51.108;13.622;2023-04-07T00:55:19;100607.00;;;2.16;45.58
68654;BME280;55636;51.108;13.622;2023-04-07T00:56:22;100607.19;;;2.14;45.61
68654;BME280;55636;51.108;13.622;2023-04-07T00:57:25;100605.50;;;2.13;45.63
68654;BME280;55636;51.108;13.622;2023-04-07T00:58:27;100602.78;;;2.13;45.64
68654;BME280;55636;51.108;13.622;2023-04-07T00:59:30;100610.94;;;2.13;45.64
68654;BME280;55636;51.108;13.622;2023-04-07T01:00:47;100604.88;;;2.11;45.89
68654;BME280;55636;51.108;13.622;2023-04-07T01:02:21;100603.19;;;2.10;45.67
68654;BME280;55636;51.108;13.622;2023-04-07T01:03:30;100600.66;;;2.08;45.87
68654;BME280;55636;51.108;13.622;2023-04-07T01:04:46;100602.72;;;2.06;45.77
68654;BME280;55636;51.108;13.622;2023-04-07T01:05:54;100599.19;;;2.06;45.98
68654;BME280;55636;51.108;13.622;2023-04-07T01:07:04;100600.22;;;2.05;45.94
68654;BME280;55636;51.108;13.622;2023-04-07T01:08:19;100593.06;;;2.04;45.95
68654;BME280;55636;51.108;13.622;2023-04-07T01:09:31;100597.03;;;2.01;45.87
68654;BME280;55636;51.108;13.622;2023-04-07T01:12:56;100597.22;;;2.00;45.73
68654;BME280;55636;51.108;13.622;2023-04-07T01:14:05;100582.13;;;1.97;45.91
68654;BME280;55636;51.108;13.622;2023-04-07T01:15:11;100588.59;;;1.96;46.06
68654;BME280;55636;51.108;13.622;2023-04-07T01:16:31;100589.66;;;1.95;46.08
68654;BME280;55636;51.108;13.622;2023-04-07T01:17:44;100586.28;;;1.93;46.13
68654;BME280;55636;51.108;13.622;2023-04-07T01:18:53;100581.25;;;1.90;46.43
68654;BME280;55636;51.108;13.622;2023-04-07T01:19:58;100592.97;;;1.90;46.21
68654;BME280;55636;51.108;13.622;2023-04-07T01:21:10;100583.31;;;1.88;46.19
68654;BME280;55636;51.108;13.622;2023-04-07T01:22:20;100586.25;;;1.86;46.24
68654;BME280;55636;51.108;13.622;2023-04-07T01:23:46;100584.16;;;1.88;46.31
68654;BME280;55636;51.108;13.622;2023-04-07T01:26:18;100574.88;;;1.83;46.35
68654;BME280;55636;51.108;13.622;2023-04-07T01:31:59;100569.38;;;1.76;46.53
68654;BME280;55636;51.108;13.622;2023-04-07T01:33:04;100576.91;;;1.74;46.59
68654;BME280;55636;51.108;13.622;2023-04-07T01:34:11;100569.97;;;1.71;46.67
68654;BME280;55636;51.108;13.622;2023-04-07T01:35:15;100569.97;;;1.71;46.61
68654;BME280;55636;51.108;13.622;2023-04-07T01:36:18;100567.44;;;1.70;46.68
68654;BME280;55636;51.108;13.622;2023-04-07T01:37:20;100572.28;;;1.68;46.70
68654;BME280;55636;51.108;13.622;2023-04-07T01:38:24;100571.59;;;1.66;46.85
68654;BME280;55636;51.108;13.622;2023-04-07T01:39:27;100569.91;;;1.65;46.91
68654;BME280;55636;51.108;13.622;2023-04-07T01:40:32;100566.38;;;1.64;46.91
68654;BME280;55636;51.108;13.622;2023-04-07T01:41:36;100577.25;;;1.64;46.99
68654;BME280;55636;51.108;13.622;2023-04-07T01:42:41;100579.53;;;1.60;47.19
68654;BME280;55636;51.108;13.622;2023-04-07T01:43:44;100576.16;;;1.58;47.17
68654;BME280;55636;51.108;13.622;2023-04-07T01:44:49;100574.47;;;1.57;47.15
68654;BME280;55636;51.108;13.622;2023-04-07T01:45:53;100578.22;;;1.56;47.21
68654;BME280;55636;51.108;13.622;2023-04-07T01:46:58;100573.81;;;1.55;47.22
68654;BME280;55636;51.108;13.622;2023-04-07T01:48:05;100571.28;;;1.54;47.38
68654;BME280;55636;51.108;13.622;2023-04-07T01:49:10;100574.22;;;1.52;47.34
68654;BME280;55636;51.108;13.622;2023-04-07T01:50:13;100577.16;;;1.51;47.37
68654;BME280;55636;51.108;13.622;2023-04-07T01:51:19;100572.53;;;1.51;47.31
68654;BME280;55636;51.108;13.622;2023-04-07T01:52:24;100572.72;;;1.50;47.41
68654;BME280;55636;51.108;13.622;2023-04-07T01:53:27;100572.94;;;1.48;47.48
68654;BME280;55636;51.108;13.622;2023-04-07T01:54:31;100569.34;;;1.48;47.30
68654;BME280;55636;51.108;13.622;2023-04-07T01:55:34;100582.13;;;1.47;47.50
68654;BME280;55636;51.108;13.622;2023-04-07T01:56:40;100575.41;;;1.43;47.61
68654;BME280;55636;51.108;13.622;2023-04-07T01:57:43;100573.69;;;1.42;47.47
68654;BME280;55636;51.108;13.622;2023-04-07T01:58:51;100582.69;;;1.42;47.55
68654;BME280;55636;51.108;13.622;2023-04-07T01:59:56;100579.56;;;1.39;47.64
68654;BME280;55636;51.108;13.622;2023-04-07T02:01:00;100576.81;;;1.39;47.55
68654;BME280;55636;51.108;13.622;2023-04-07T02:02:04;100572.63;;;1.36;47.83
68654;BME280;55636;51.108;13.622;2023-04-07T02:03:12;100573.44;;;1.37;47.72
68654;BME280;55636;51.108;13.622;2023-04-07T02:04:49;100575.50;;;1.35;47.80
68654;BME280;55636;51.108;13.622;2023-04-07T02:05:56;100565.00;;;1.32;47.63
68654;BME280;55636;51.108;13.622;2023-04-07T02:07:08;100570.25;;;1.33;47.85
68654;BME280;55636;51.108;13.622;2023-04-07T02:08:18;100568.75;;;1.31;47.63
68654;BME280;55636;51.108;13.622;2023-04-07T02:09:25;100562.50;;;1.30;47.67
68654;BME280;55636;51.108;13.622;2023-04-07T02:10:34;100571.69;;;1.29;47.85
68654;BME280;55636;51.108;13.622;2023-04-07T02:11:39;100568.31;;;1.27;47.93
68654;BME280;55636;51.108;13.622;2023-04-07T02:12:45;100562.88;;;1.27;47.90
68654;BME280;55636;51.108;13.622;2023-04-07T02:13:52;100568.50;;;1.25;47.96
68654;BME280;55636;51.108;13.622;2023-04-07T02:14:57;100563.06;;;1.25;48.03
68654;BME280;55636;51.108;13.622;2023-04-07T02:16:00;100560.75;;;1.22;48.01
68654;BME280;55636;51.108;13.622;2023-04-07T02:17:03;100564.28;;;1.23;47.97
68654;BME280;55636;51.108;13.622;2023-04-07T02:18:07;100561.75;;;1.21;48.02
68654;BME280;55636;51.108;13.622;2023-04-07T02:19:12;100556.53;;;1.20;48.34
68654;BME280;55636;51.108;13.622;2023-04-07T02:20:16;100563.00;;;1.19;48.16
68654;BME280;55636;51.108;13.622;2023-04-07T02:21:20;100557.56;;;1.19;48.10
68654;BME280;55636;51.108;13.622;2023-04-07T02:22:25;100565.06;;;1.17;48.23
68654;BME280;55636;51.108;13.622;2023-04-07T02:23:28;100557.94;;;1.16;48.36
68654;BME280;55636;51.108;13.622;2023-04-07T02:24:31;100566.13;;;1.16;48.38
68654;BME280;55636;51.108;13.622;2023-04-07T02:26:58;100552.03;;;1.12;48.41
68654;BME280;55636;51.108;13.622;2023-04-07T02:28:03;100553.94;;;1.12;48.33
68654;BME280;55636;51.108;13.622;2023-04-07T02:29:06;100551.38;;;1.10;48.38
68654;BME280;55636;51.108;13.622;2023-04-07T02:30:08;100552.25;;;1.10;48.46
68654;BME280;55636;51.108;13.622;2023-04-07T02:31:11;100550.34;;;1.11;48.42
68654;BME280;55636;51.108;13.622;2023-04-07T02:32:14;100546.81;;;1.10;48.23
68654;BME280;55636;51.108;13.622;2023-04-07T02:33:18;100554.31;;;1.08;48.54
68654;BME280;55636;51.108;13.622;2023-04-07T02:34:21;100550.75;;;1.08;48.58
68654;BME280;55636;51.108;13.622;2023-04-07T02:35:23;100549.06;;;1.07;48.64
68654;BME280;55636;51.108;13.622;2023-04-07T02:36:26;100551.13;;;1.05;48.62
68654;BME280;55636;51.108;13.622;2023-04-07T02:37:28;100546.53;;;1.05;48.59
68654;BME280;55636;51.108;13.622;2023-04-07T02:38:31;100545.88;;;1.03;48.53
68654;BME280;55636;51.108;13.622;2023-04-07T02:39:34;100550.50;;;1.03;48.68
68654;BME280;55636;51.108;13.622;2023-04-07T02:40:36;100555.94;;;1.03;48.54
68654;BME280;55636;51.108;13.622;2023-04-07T02:41:41;100551.50;;;1.02;48.58
68654;BME280;55636;51.108;13.622;2023-04-07T02:42:45;100553.56;;;1.00;48.56
68654;BME280;55636;51.108;13.622;2023-04-07T02:43:47;100547.31;;;0.99;48.61
68654;BME280;55636;51.108;13.622;2023-04-07T02:44:52;100551.06;;;0.98;48.77
68654;BME280;55636;51.108;13.622;2023-04-07T02:45:54;100552.94;;;0.98;48.75
68654;BME280;55636;51.108;13.622;2023-04-07T02:46:57;100541.41;;;0.96;48.64
68654;BME280;55636;51.108;13.622;2023-04-07T02:48:00;100546.84;;;0.96;48.79
68654;BME280;55636;51.108;13.622;2023-04-07T02:49:02;100547.69;;;0.96;48.57
68654;BME280;55636;51.108;13.622;2023-04-07T02:50:05;100549.56;;;0.96;48.70
68654;BME280;55636;51.108;13.622;2023-04-07T02:51:11;100551.44;;;0.95;48.69
68654;BME280;55636;51.108;13.622;2023-04-07T02:52:13;100548.25;;;0.91;48.96
68654;BME280;55636;51.108;13.622;2023-04-07T02:53:18;100551.84;;;0.92;48.81
68654;BME280;55636;51.108;13.622;2023-04-07T02:54:20;100546.41;;;0.92;48.92
68654;BME280;55636;51.108;13.622;2023-04-07T02:55:22;100553.06;;;0.89;49.12
68654;BME280;55636;51.108;13.622;2023-04-07T02:56:27;100544.06;;;0.89;48.97
68654;BME280;55636;51.108;13.622;2023-04-07T02:57:29;100548.66;;;0.88;49.06
68654;BME280;55636;51.108;13.622;2023-04-07T02:58:35;100548.84;;;0.87;nan
68654;BME280;55636;51.108;13.622;2023-04-07T02:59:38;100544.44;;;0.86;49.19
68654;BME280;55636;51.108;13.622;2023-04-07T03:00:41;100546.31;;;0.85;49.21
68654;BME280;55636;51.108;13.622;2023-04-07T03:01:48;100544.63;;;0.84;49.15
68654;BME280;55636;51.108;13.622;2023-04-07T03:02:51;100542.75;;;0.85;49.29
68654;BME280;55636;51.108;13.622;2023-04-07T03:03:54;100542.75;;;0.85;49.39
68654;BME280;55636;51.108;13.622;2023-04-07T03:04:59;100543.97;;;0.82;49.36
68654;BME280;55636;51.108;13.622;2023-04-07T03:06:05;100542.94;;;0.83;49.33
68654;BME280;55636;51.108;13.622;2023-04-07T03:07:10;100540.44;;;0.82;49.50
68654;BME280;55636;51.108;13.622;2023-04-07T03:08:15;100544.19;;;0.81;49.30
68654;BME280;55636;51.108;13.622;2023-04-07T03:09:19;100539.56;;;0.81;49.46
68654;BME280;55636;51.108;13.622;2023-04-07T03:10:21;100546.03;;;0.80;49.58
68654;BME280;55636;51.108;13.622;2023-04-07T03:11:24;100539.97;;;0.78;49.48
68654;BME280;55636;51.108;13.622;2023-04-07T03:12:27;100540.16;;;0.76;49.64
68654;BME280;55636;51.108;13.622;2023-04-07T03:13:29;100533.84;;;0.76;49.61
68654;BME280;55636;51.108;13.622;2023-04-07T03:14:34;100544.94;;;0.74;49.75
68654;BME280;55636;51.108;13.622;2023-04-07T03:15:37;100536.78;;;0.74;49.56
68654;BME280;55636;51.108;13.622;2023-04-07T03:16:41;100535.06;;;0.73;49.57
68654;BME280;55636;51.108;13.622;2023-04-07T03:17:46;100536.97;;;0.73;49.73
68654;BME280;55636;51.108;13.622;2023-04-07T03:18:50;100536.31;;;0.71;49.65
68654;BME280;55636;51.108;13.622;2023-04-07T03:19:53;100535.66;;;0.69;49.67
68654;BME280;55636;51.108;13.622;2023-04-07T03:20:56;100539.03;;;0.71;49.71
68654;BME280;55636;51.108;13.622;2023-04-07T03:21:58;100528.53;;;0.68;49.59
68654;BME280;55636;51.108;13.622;2023-04-07T03:23:01;100537.53;;;0.68;49.66
68654;BME280;55636;51.108;13.622;2023-04-07T03:24:05;100535.66;;;0.69;49.74
68654;BME280;55636;51.108;13.622;2023-04-07T03:25:08;100537.72;;;0.67;49.69
68654;BME280;55636;51.108;13.622;2023-04-07T03:26:11;100537.72;;;0.67;49.78
68654;BME280;55636;51.108;13.622;2023-04-07T03:27:13;100526.84;;;0.67;49.73
68654;BME280;55636;51.108;13.622;2023-04-07T03:28:19;100526.00;;;0.66;49.84
68654;BME280;55636;51.108;13.622;2023-04-07T03:29:22;100525.16;;;0.66;49.66
68654;BME280;55636;51.108;13.622;2023-04-07T03:30:27;100529.97;;;0.64;49.92
68654;BME280;55636;51.108;13.622;2023-04-07T03:31:30;100525.53;;;0.63;49.92
68654;BME280;55636;51.108;13.622;2023-04-07T03:32:32;100523.03;;;0.61;49.83
68654;BME280;55636;51.108;13.622;2023-04-07T03:33:34;100528.47;;;0.61;49.98
68654;BME280;55636;51.108;13.622;2023-04-07T03:34:37;100522.00;;;0.62;50.05
68654;BME280;55636;51.108;13.622;2023-04-07T03:35:41;100523.03;;;0.61;50.07
68654;BME280;55636;51.108;13.622;2023-04-07T03:36:45;100526.78;;;0.60;49.95
68654;BME280;55636;51.108;13.622;2023-04-07T03:37:47;100526.97;;;0.58;49.94
68654;BME280;55636;51.108;13.622;2023-04-07T03:38:55;100522.34;;;0.59;50.07
68654;BME280;55636;51.108;13.622;2023-04-07T03:39:58;100523.59;;;0.56;49.96
68654;BME280;55636;51.108;13.622;2023-04-07T03:41:04;100521.72;;;0.57;50.02
68654;BME280;55636;51.108;13.622;2023-04-07T03:42:06;100521.06;;;0.55;50.13
68654;BME280;55636;51.108;13.622;2023-04-07T03:43:10;100520.03;;;0.56;50.02
68654;BME280;55636;51.108;13.622;2023-04-07T03:44:16;100524.44;;;0.57;50.10
68654;BME280;55636;51.108;13.622;2023-04-07T03:45:19;100531.75;;;0.56;50.11
68654;BME280;55636;51.108;13.622;2023-04-07T03:46:23;100517.50;;;0.54;50.09
68654;BME280;55636;51.108;13.622;2023-04-07T03:47:28;100527.53;;;0.54;50.14
68654;BME280;55636;51.108;13.622;2023-04-07T03:48:35;100523.97;;;0.53;50.22
68654;BME280;55636;51.108;13.622;2023-04-07T03:49:41;100527.72;;;0.52;50.26
68654;BME280;55636;51.108;13.622;2023-04-07T03:50:44;100525.84;;;0.53;50.15
68654;BME280;55636;51.108;13.622;2023-04-07T03:51:50;100521.25;;;0.53;50.01
68654;BME280;55636;51.108;13.622;2023-04-07T03:52:53;100527.72;;;0.52;50.03
68654;BME280;55636;51.108;13.622;2023-04-07T03:54:00;100525.84;;;0.53;50.12
68654;BME280;55636;51.108;13.622;2023-04-07T03:55:08;100519.75;;;0.51;50.12
68654;BME280;55636;51.108;13.622;2023-04-07T03:56:10;100517.88;;;0.51;50.02
68654;BME280;55636;51.108;13.622;2023-04-07T03:57:18;100522.47;;;0.51;50.07
68654;BME280;55636;51.108;13.622;2023-04-07T03:58:22;100525.19;;;0.51;50.05
68654;BME280;55636;51.108;13.622;2023-04-07T03:59:24;100520.78;;;0.50;50.05
68654;BME280;55636;51.108;13.622;2023-04-07T04:00:32;100525.41;;;0.49;50.37
68654;BME280;55636;51.108;13.622;2023-04-07T04:01:42;100523.69;;;0.48;50.25
68654;BME280;55636;51.108;13.622;2023-04-07T04:02:48;100521.19;;;0.47;50.36
68654;BME280;55636;51.108;13.622;2023-04-07T04:03:54;100529.13;;;0.48;50.22
68654;BME280;55636;51.108;13.622;2023-04-07T04:05:04;100525.56;;;0.48;50.33
68654;BME280;55636;51.108;13.622;2023-04-07T04:06:07;100526.63;;;0.47;50.38
68654;BME280;55636;51.108;13.622;2023-04-07T04:07:10;100530.16;;;0.47;50.32
68654;BME280;55636;51.108;13.622;2023-04-07T04:08:19;100525.75;;;0.46;50.34
68654;BME280;55636;51.108;13.622;2023-04-07T04:09:22;100523.22;;;0.44;50.37
68654;BME280;55636;51.108;13.622;2023-04-07T04:10:24;100524.25;;;0.43;50.49
68654;BME280;55636;51.108;13.622;2023-04-07T04:11:27;100527.84;;;0.44;50.56
68654;BME280;55636;51.108;13.622;2023-04-07T04:12:34;100528.03;;;0.42;50.50
68654;BME280;55636;51.108;13.622;2023-04-07T04:13:42;100534.28;;;0.43;50.40
68654;BME280;55636;51.108;13.622;2023-04-07T04:14:45;100525.31;;;0.42;50.52
68654;BME280;55636;51.108;13.622;2023-04-07T04:15:49;100529.88;;;0.42;50.59
68654;BME280;55636;51.108;13.622;2023-04-07T04:16:53;100531.56;;;0.43;50.60
68654;BME280;55636;51.108;13.622;2023-04-07T04:18:04;100533.63;;;0.41;50.50
68654;BME280;55636;51.108;13.622;2023-04-07T04:19:08;100532.81;;;0.40;50.49
68654;BME280;55636;51.108;13.622;2023-04-07T04:20:10;100533.00;;;0.39;50.65
68654;BME280;55636;51.108;13.622;2023-04-07T04:21:18;100532.13;;;0.38;50.54
68654;BME280;55636;51.108;13.622;2023-04-07T04:22:21;100527.75;;;0.37;50.65
68654;BME280;55636;51.108;13.622;2023-04-07T04:23:27;100528.78;;;0.36;50.53
68654;BME280;55636;51.108;13.622;2023-04-07T04:24:32;100532.31;;;0.37;50.52
68654;BME280;55636;51.108;13.622;2023-04-07T04:25:37;100537.75;;;0.37;50.48
68654;BME280;55636;51.108;13.622;2023-04-07T04:26:44;100536.75;;;0.38;50.46
68654;BME280;55636;51.108;13.622;2023-04-07T04:27:50;100532.31;;;0.37;50.64
68654;BME280;55636;51.108;13.622;2023-04-07T04:28:56;100530.63;;;0.36;50.53
68654;BME280;55636;51.108;13.622;2023-04-07T04:29:59;100533.19;;;0.37;50.63
68654;BME280;55636;51.108;13.622;2023-04-07T04:31:09;100540.69;;;0.35;50.76
68654;BME280;55636;51.108;13.622;2023-04-07T04:32:16;100539.84;;;0.35;50.53
68654;BME280;55636;51.108;13.622;2023-04-07T04:33:19;100535.25;;;0.35;50.62
68654;BME280;55636;51.108;13.622;2023-04-07T04:34:28;100535.25;;;0.35;50.62
68654;BME280;55636;51.108;13.622;2023-04-07T04:35:31;100544.41;;;0.34;50.70
68654;BME280;55636;51.108;13.622;2023-04-07T04:36:46;100531.84;;;0.33;50.67
68654;BME280;55636;51.108;13.622;2023-04-07T04:37:53;100534.56;;;0.33;50.65
68654;BME280;55636;51.108;13.622;2023-04-07T04:38:55;100544.41;;;0.34;50.70
68654;BME280;55636;51.108;13.622;2023-04-07T04:39:58;100531.84;;;0.33;50.65
68654;BME280;55636;51.108;13.622;2023-04-07T04:41:00;100534.56;;;0.33;50.82
68654;BME280;55636;51.108;13.622;2023-04-07T04:42:04;100530.19;;;0.32;50.66
68654;BME280;55636;51.108;13.622;2023-04-07T04:43:10;100527.47;;;0.32;50.63
68654;BME280;55636;51.108;13.622;2023-04-07T04:44:14;100537.47;;;0.32;50.77
68654;BME280;55636;51.108;13.622;2023-04-07T04:45:16;100534.78;;;0.32;50.87
68654;BME280;55636;51.108;13.622;2023-04-07T04:46:21;100537.47;;;0.32;50.86
68654;BME280;55636;51.108;13.622;2023-04-07T04:47:25;100532.25;;;0.30;50.76
68654;BME280;55636;51.108;13.622;2023-04-07T04:48:27;100533.94;;;0.31;50.79
68654;BME280;55636;51.108;13.622;2023-04-07T04:49:31;100536.84;;;0.30;50.88
68654;BME280;55636;51.108;13.622;2023-04-07T04:50:36;100534.97;;;0.30;50.85
68654;BME280;55636;51.108;13.622;2023-04-07T04:51:44;100541.41;;;0.29;50.78
68654;BME280;55636;51.108;13.622;2023-04-07T04:52:56;100539.56;;;0.30;50.80
68654;BME280;55636;51.108;13.622;2023-04-07T04:53:58;100535.78;;;0.31;50.74
68654;BME280;55636;51.108;13.622;2023-04-07T04:55:02;100537.69;;;0.30;50.83
68654;BME280;55636;51.108;13.622;2023-04-07T04:56:04;100544.81;;;0.31;50.97
68654;BME280;55636;51.108;13.622;2023-04-07T04:57:12;100538.50;;;0.31;50.62
68654;BME280;55636;51.108;13.622;2023-04-07T04:58:15;100543.13;;;0.30;50.80
68654;BME280;55636;51.108;13.622;2023-04-07T04:59:22;100541.22;;;0.31;50.83
68654;BME280;55636;51.108;13.622;2023-04-07T05:00:30;100539.56;;;0.30;50.94
68654;BME280;55636;51.108;13.622;2023-04-07T05:01:36;100548.75;;;0.28;50.88
68654;BME280;55636;51.108;13.622;2023-04-07T05:02:43;100540.59;;;0.28;51.21
68654;BME280;55636;51.108;13.622;2023-04-07T05:03:45;100552.09;;;0.31;50.94
68654;BME280;55636;51.108;13.622;2023-04-07T05:04:53;100541.63;;;0.27;51.09
68654;BME280;55636;51.108;13.622;2023-04-07T05:05:59;100540.78;;;0.27;51.15
68654;BME280;55636;51.108;13.622;2023-04-07T05:07:02;100539.72;;;0.28;50.98
68654;BME280;55636;51.108;13.622;2023-04-07T05:08:09;100539.72;;;0.28;51.12
68654;BME280;55636;51.108;13.622;2023-04-07T05:09:13;100535.16;;;0.28;50.96
68654;BME280;55636;51.108;13.622;2023-04-07T05:10:19;100541.63;;;0.27;51.04
68654;BME280;55636;51.108;13.622;2023-04-07T05:11:24;100539.72;;;0.28;51.02
68654;BME280;55636;51.108;13.622;2023-04-07T05:12:29;100544.34;;;0.27;51.16
68654;BME280;55636;51.108;13.622;2023-04-07T05:13:35;100541.41;;;0.29;51.06
68654;BME280;55636;51.108;13.622;2023-04-07T05:14:38;100533.47;;;0.27;51.15
68654;BME280;55636;51.108;13.622;2023-04-07T05:15:42;100537.88;;;0.28;51.15
68654;BME280;55636;51.108;13.622;2023-04-07T05:16:47;100539.56;;;0.30;51.10
68654;BME280;55636;51.108;13.622;2023-04-07T05:17:54;100540.41;;;0.30;51.03
68654;BME280;55636;51.108;13.622;2023-04-07T05:19:00;100538.50;;;0.31;51.13
68654;BME280;55636;51.108;13.622;2023-04-07T05:20:03;100534.78;;;0.32;51.26
68654;BME280;55636;51.108;13.622;2023-04-07T05:21:14;100539.38;;;0.31;51.40
68654;BME280;55636;51.108;13.622;2023-04-07T05:22:16;100540.00;;;0.33;51.13
68654;BME280;55636;51.108;13.622;2023-04-07T05:23:21;100543.59;;;0.34;51.10
68654;BME280;55636;51.108;13.622;2023-04-07T05:24:27;100545.28;;;0.35;51.23
68654;BME280;55636;51.108;13.622;2023-04-07T05:25:34;100545.28;;;0.35;51.32
68654;BME280;55636;51.108;13.622;2023-04-07T05:26:39;100545.91;;;0.37;51.36
68654;BME280;55636;51.108;13.622;2023-04-07T05:27:42;100546.94;;;0.36;51.40
68654;BME280;55636;51.108;13.622;2023-04-07T05:28:48;100538.63;;;0.37;51.39
68654;BME280;55636;51.108;13.622;2023-04-07T05:29:54;100539.47;;;0.38;51.31
68654;BME280;55636;51.108;13.622;2023-04-07T05:31:04;100541.97;;;0.39;51.44
68654;BME280;55636;51.108;13.622;2023-04-07T05:32:09;100546.38;;;0.40;51.46
68654;BME280;55636;51.108;13.622;2023-04-07T05:33:13;100546.00;;;0.43;51.52
68654;BME280;55636;51.108;13.622;2023-04-07T05:34:24;100535.13;;;0.43;51.60
68654;BME280;55636;51.108;13.622;2023-04-07T05:35:29;100541.88;;;0.48;51.41
68654;BME280;55636;51.108;13.622;2023-04-07T05:36:34;100543.38;;;0.50;51.47
68654;BME280;55636;51.108;13.622;2023-04-07T05:37:37;100533.16;;;0.52;51.50
68654;BME280;55636;51.108;13.622;2023-04-07T05:38:43;100533.81;;;0.54;51.55
68654;BME280;55636;51.108;13.622;2023-04-07T05:39:50;100541.78;;;0.56;51.46
68654;BME280;55636;51.108;13.622;2023-04-07T05:40:52;100536.81;;;0.59;51.42
68654;BME280;55636;51.108;13.622;2023-04-07T05:41:59;100538.13;;;0.64;51.40
68654;BME280;55636;51.108;13.622;2023-04-07T05:43:03;100526.00;;;0.66;51.33
68654;BME280;55636;51.108;13.622;2023-04-07T05:44:07;100527.72;;;0.67;51.30
68654;BME280;55636;51.108;13.622;2023-04-07T05:45:13;100531.72;;;0.71;51.04
68654;BME280;55636;51.108;13.622;2023-04-07T05:46:20;100532.34;;;0.73;51.16
68654;BME280;55636;51.108;13.622;2023-04-07T05:47:27;100531.13;;;0.76;51.17
68654;BME280;55636;51.108;13.622;2023-04-07T05:48:30;100528.88;;;0.80;51.25
68654;BME280;55636;51.108;13.622;2023-04-07T05:49:34;100532.06;;;0.83;51.12